sensor_id;sensor_type;location;lat;lon;timestamp;pressure;altitude;pressure_sealevel;temperature
15079;BMP180;6932;51.438;5.470;2023-03-16T00:00:15;101415.00;;;11.30
15079;BMP180;6932;51.438;5.470;2023-03-16T00:02:42;101407.00;;;11.40
15079;BMP180;6932;51.438;5.470;2023-03-16T00:05:10;101410.00;;;11.40
15079;BMP180;6932;51.438;5.470;2023-03-16T00:07:37;101407.00;;;11.50
15079;BMP180;6932;51.438;5.470;2023-03-16T00:10:37;101409.00;;;11.50
15079;BMP180;6932;51.438;5.470;2023-03-16T00:13:03;101411.00;;;11.50
15079;BMP180;6932;51.438;5.470;2023-03-16T00:15:28;101398.00;;;11.50
15079;BMP180;6932;51.438;5.470;2023-03-16T00:17:54;101402.00;;;11.50
15079;BMP180;6932;51.438;5.470;2023-03-16T00:20:20;101401.00;;;11.50
15079;BMP180;6932;51.438;5.470;2023-03-16T00:22:47;101399.00;;;11.60
15079;BMP180;6932;51.438;5.470;2023-03-16T00:25:13;101395.00;;;11.60
15079;BMP180;6932;51.438;5.470;2023-03-16T00:27:40;101388.00;;;11.60
15079;BMP180;6932;51.438;5.470;2023-03-16T00:30:07;101391.00;;;11.60
15079;BMP180;6932;51.438;5.470;2023-03-16T00:32:35;101378.00;;;11.60
15079;BMP180;6932;51.438;5.470;2023-03-16T00:35:03;101377.00;;;11.60
15079;BMP180;6932;51.438;5.470;2023-03-16T00:37:30;101380.00;;;11.60
15079;BMP180;6932;51.438;5.470;2023-03-16T00:39:57;101381.00;;;11.60
15079;BMP180;6932;51.438;5.470;2023-03-16T00:42:27;101378.00;;;11.60
15079;BMP180;6932;51.438;5.470;2023-03-16T00:44:57;101377.00;;;11.60
15079;BMP180;6932;51.438;5.470;2023-03-16T00:47:27;101366.00;;;11.60
15079;BMP180;6932;51.438;5.470;2023-03-16T00:49:54;101375.00;;;11.60
15079;BMP180;6932;51.438;5.470;2023-03-16T00:52:20;101373.00;;;11.60
15079;BMP180;6932;51.438;5.470;2023-03-16T00:54:48;101359.00;;;11.60
15079;BMP180;6932;51.438;5.470;2023-03-16T00:57:20;101362.00;;;11.70
15079;BMP180;6932;51.438;5.470;2023-03-16T00:59:47;101366.00;;;11.70
15079;BMP180;6932;51.438;5.470;2023-03-16T01:02:16;101357.00;;;11.70
15079;BMP180;6932;51.438;5.470;2023-03-16T01:04:43;101351.00;;;11.60
15079;BMP180;6932;51.438;5.470;2023-03-16T01:07:13;101342.00;;;11.70
15079;BMP180;6932;51.438;5.470;2023-03-16T01:09:41;101340.00;;;11.70
15079;BMP180;6932;51.438;5.470;2023-03-16T01:12:14;101335.00;;;11.70
15079;BMP180;6932;51.438;5.470;2023-03-16T01:14:41;101329.00;;;11.70
15079;BMP180;6932;51.438;5.470;2023-03-16T01:17:08;101332.00;;;11.70
15079;BMP180;6932;51.438;5.470;2023-03-16T01:19:37;101330.00;;;11.70
15079;BMP180;6932;51.438;5.470;2023-03-16T01:22:05;101322.00;;;11.70
15079;BMP180;6932;51.438;5.470;2023-03-16T01:24:32;101326.00;;;11.70
15079;BMP180;6932;51.438;5.470;2023-03-16T01:26:59;101317.00;;;11.70
15079;BMP180;6932;51.438;5.470;2023-03-16T01:29:25;101313.00;;;11.70
15079;BMP180;6932;51.438;5.470;2023-03-16T01:31:51;101311.00;;;11.70
15079;BMP180;6932;51.438;5.470;2023-03-16T01:34:17;101309.00;;;11.70
15079;BMP180;6932;51.438;5.470;2023-03-16T01:36:47;101306.00;;;11.70
15079;BMP180;6932;51.438;5.470;2023-03-16T01:39:13;101298.00;;;11.70
15079;BMP180;6932;51.438;5.470;2023-03-16T01:41:41;101287.00;;;11.70
15079;BMP180;6932;51.438;5.470;2023-03-16T01:44:13;101293.00;;;11.70
15079;BMP180;6932;51.438;5.470;2023-03-16T01:50:19;101290.00;;;11.60
15079;BMP180;6932;51.438;5.470;2023-03-16T01:52:47;101298.00;;;11.60
15079;BMP180;6932;51.438;5.470;2023-03-16T01:55:13;101296.00;;;11.60
15079;BMP180;6932;51.438;5.470;2023-03-16T01:57:43;101289.00;;;11.60
15079;BMP180;6932;51.438;5.470;2023-03-16T02:00:13;101293.00;;;11.60
15079;BMP180;6932;51.438;5.470;2023-03-16T02:02:55;101280.00;;;11.60
15079;BMP180;6932;51.438;5.470;2023-03-16T02:05:40;101289.00;;;11.60
15079;BMP180;6932;51.438;5.470;2023-03-16T02:08:09;101286.00;;;11.60
15079;BMP180;6932;51.438;5.470;2023-03-16T02:10:37;101280.00;;;11.60
15079;BMP180;6932;51.438;5.470;2023-03-16T02:13:04;101280.00;;;11.60
15079;BMP180;6932;51.438;5.470;2023-03-16T02:15:30;101281.00;;;11.70
15079;BMP180;6932;51.438;5.470;2023-03-16T02:17:57;101276.00;;;11.70
15079;BMP180;6932;51.438;5.470;2023-03-16T02:21:06;101278.00;;;11.70
15079;BMP180;6932;51.438;5.470;2023-03-16T02:23:35;101275.00;;;11.70
15079;BMP180;6932;51.438;5.470;2023-03-16T02:26:25;101275.00;;;11.70
15079;BMP180;6932;51.438;5.470;2023-03-16T02:29:22;101271.00;;;11.70
15079;BMP180;6932;51.438;5.470;2023-03-16T02:31:51;101262.00;;;11.60
15079;BMP180;6932;51.438;5.470;2023-03-16T02:34:18;101267.00;;;11.60
15079;BMP180;6932;51.438;5.470;2023-03-16T02:36:47;101275.00;;;11.70
15079;BMP180;6932;51.438;5.470;2023-03-16T02:39:14;101268.00;;;11.70
15079;BMP180;6932;51.438;5.470;2023-03-16T02:41:40;101260.00;;;11.70
15079;BMP180;6932;51.438;5.470;2023-03-16T02:44:20;101255.00;;;11.70
15079;BMP180;6932;51.438;5.470;2023-03-16T02:46:52;101258.00;;;11.70
15079;BMP180;6932;51.438;5.470;2023-03-16T02:49:29;101260.00;;;11.70
15079;BMP180;6932;51.438;5.470;2023-03-16T02:51:56;101255.00;;;11.70
15079;BMP180;6932;51.438;5.470;2023-03-16T02:54:22;101252.00;;;11.70
15079;BMP180;6932;51.438;5.470;2023-03-16T02:56:49;101252.00;;;11.70
15079;BMP180;6932;51.438;5.470;2023-03-16T02:59:15;101248.00;;;11.70
15079;BMP180;6932;51.438;5.470;2023-03-16T03:01:41;101251.00;;;11.60
15079;BMP180;6932;51.438;5.470;2023-03-16T03:04:07;101252.00;;;11.60
15079;BMP180;6932;51.438;5.470;2023-03-16T03:06:34;101250.00;;;11.60
15079;BMP180;6932;51.438;5.470;2023-03-16T03:09:00;101243.00;;;11.60
15079;BMP180;6932;51.438;5.470;2023-03-16T03:11:27;101239.00;;;11.60
15079;BMP180;6932;51.438;5.470;2023-03-16T03:13:53;101236.00;;;11.60
15079;BMP180;6932;51.438;5.470;2023-03-16T03:16:20;101238.00;;;11.60
15079;BMP180;6932;51.438;5.470;2023-03-16T03:18:47;101246.00;;;11.60
15079;BMP180;6932;51.438;5.470;2023-03-16T03:21:13;101230.00;;;11.60
15079;BMP180;6932;51.438;5.470;2023-03-16T03:23:39;101226.00;;;11.60
15079;BMP180;6932;51.438;5.470;2023-03-16T03:26:05;101237.00;;;11.60
15079;BMP180;6932;51.438;5.470;2023-03-16T03:28:31;101238.00;;;11.60
15079;BMP180;6932;51.438;5.470;2023-03-16T03:30:59;101228.00;;;11.60
15079;BMP180;6932;51.438;5.470;2023-03-16T03:33:26;101235.00;;;11.60
15079;BMP180;6932;51.438;5.470;2023-03-16T03:35:55;101232.00;;;11.60
15079;BMP180;6932;51.438;5.470;2023-03-16T03:38:23;101227.00;;;11.60
15079;BMP180;6932;51.438;5.470;2023-03-16T03:40:53;101225.00;;;11.60
15079;BMP180;6932;51.438;5.470;2023-03-16T03:47:08;101230.00;;;11.50
15079;BMP180;6932;51.438;5.470;2023-03-16T03:49:34;101222.00;;;11.50
15079;BMP180;6932;51.438;5.470;2023-03-16T03:51:59;101222.00;;;11.50
15079;BMP180;6932;51.438;5.470;2023-03-16T03:54:30;101222.00;;;11.50
15079;BMP180;6932;51.438;5.470;2023-03-16T03:56:55;101222.00;;;11.50
15079;BMP180;6932;51.438;5.470;2023-03-16T03:59:21;101227.00;;;11.60
15079;BMP180;6932;51.438;5.470;2023-03-16T04:01:48;101219.00;;;11.60
15079;BMP180;6932;51.438;5.470;2023-03-16T04:04:14;101214.00;;;11.60
15079;BMP180;6932;51.438;5.470;2023-03-16T04:06:40;101202.00;;;11.60
15079;BMP180;6932;51.438;5.470;2023-03-16T04:09:07;101202.00;;;11.60
15079;BMP180;6932;51.438;5.470;2023-03-16T04:11:33;101205.00;;;11.60
15079;BMP180;6932;51.438;5.470;2023-03-16T04:13:58;101201.00;;;11.60
15079;BMP180;6932;51.438;5.470;2023-03-16T04:16:25;101195.00;;;11.60
15079;BMP180;6932;51.438;5.470;2023-03-16T04:18:53;101200.00;;;11.60
15079;BMP180;6932;51.438;5.470;2023-03-16T04:21:20;101191.00;;;11.60
15079;BMP180;6932;51.438;5.470;2023-03-16T04:23:47;101191.00;;;11.60
15079;BMP180;6932;51.438;5.470;2023-03-16T04:26:13;101201.00;;;11.60
15079;BMP180;6932;51.438;5.470;2023-03-16T04:28:39;101196.00;;;11.60
15079;BMP180;6932;51.438;5.470;2023-03-16T04:31:08;101198.00;;;11.70
15079;BMP180;6932;51.438;5.470;2023-03-16T04:33:36;101195.00;;;11.70
15079;BMP180;6932;51.438;5.470;2023-03-16T04:36:05;101196.00;;;11.70
15079;BMP180;6932;51.438;5.470;2023-03-16T04:38:32;101187.00;;;11.70
15079;BMP180;6932;51.438;5.470;2023-03-16T04:41:00;101202.00;;;11.70
15079;BMP180;6932;51.438;5.470;2023-03-16T04:43:26;101196.00;;;11.70
15079;BMP180;6932;51.438;5.470;2023-03-16T04:45:52;101196.00;;;11.70
15079;BMP180;6932;51.438;5.470;2023-03-16T04:48:18;101192.00;;;11.70
15079;BMP180;6932;51.438;5.470;2023-03-16T04:50:47;101177.00;;;11.70
15079;BMP180;6932;51.438;5.470;2023-03-16T04:53:13;101181.00;;;11.70
15079;BMP180;6932;51.438;5.470;2023-03-16T04:55:39;101185.00;;;11.70
15079;BMP180;6932;51.438;5.470;2023-03-16T04:58:06;101179.00;;;11.70
15079;BMP180;6932;51.438;5.470;2023-03-16T05:00:32;101180.00;;;11.70
15079;BMP180;6932;51.438;5.470;2023-03-16T05:02:58;101179.00;;;11.80
15079;BMP180;6932;51.438;5.470;2023-03-16T05:05:23;101177.00;;;11.80
15079;BMP180;6932;51.438;5.470;2023-03-16T05:07:49;101181.00;;;11.80
15079;BMP180;6932;51.438;5.470;2023-03-16T05:10:17;101164.00;;;11.80
15079;BMP180;6932;51.438;5.470;2023-03-16T05:12:46;101173.00;;;11.80
15079;BMP180;6932;51.438;5.470;2023-03-16T05:15:12;101168.00;;;11.80
15079;BMP180;6932;51.438;5.470;2023-03-16T05:17:39;101163.00;;;11.80
15079;BMP180;6932;51.438;5.470;2023-03-16T05:20:09;101165.00;;;11.80
15079;BMP180;6932;51.438;5.470;2023-03-16T05:22:39;101162.00;;;11.90
15079;BMP180;6932;51.438;5.470;2023-03-16T05:25:05;101171.00;;;11.90
15079;BMP180;6932;51.438;5.470;2023-03-16T05:27:31;101158.00;;;11.90
15079;BMP180;6932;51.438;5.470;2023-03-16T05:29:58;101161.00;;;11.90
15079;BMP180;6932;51.438;5.470;2023-03-16T05:32:26;101164.00;;;11.90
15079;BMP180;6932;51.438;5.470;2023-03-16T05:34:52;101154.00;;;11.90
15079;BMP180;6932;51.438;5.470;2023-03-16T05:37:18;101154.00;;;11.90
15079;BMP180;6932;51.438;5.470;2023-03-16T05:39:44;101151.00;;;11.90
15079;BMP180;6932;51.438;5.470;2023-03-16T05:42:09;101155.00;;;11.90
15079;BMP180;6932;51.438;5.470;2023-03-16T05:44:35;101150.00;;;11.90
15079;BMP180;6932;51.438;5.470;2023-03-16T05:47:01;101155.00;;;11.90
15079;BMP180;6932;51.438;5.470;2023-03-16T05:49:27;101144.00;;;11.90
15079;BMP180;6932;51.438;5.470;2023-03-16T05:51:53;101147.00;;;11.90
15079;BMP180;6932;51.438;5.470;2023-03-16T05:54:19;101135.00;;;11.90
15079;BMP180;6932;51.438;5.470;2023-03-16T05:56:44;101133.00;;;11.90
15079;BMP180;6932;51.438;5.470;2023-03-16T05:59:10;101143.00;;;11.90
15079;BMP180;6932;51.438;5.470;2023-03-16T06:01:36;101153.00;;;12.00
15079;BMP180;6932;51.438;5.470;2023-03-16T06:04:02;101140.00;;;12.00
15079;BMP180;6932;51.438;5.470;2023-03-16T06:06:30;101138.00;;;11.90
15079;BMP180;6932;51.438;5.470;2023-03-16T06:08:56;101145.00;;;12.00
15079;BMP180;6932;51.438;5.470;2023-03-16T06:11:22;101138.00;;;12.00
15079;BMP180;6932;51.438;5.470;2023-03-16T06:13:47;101141.00;;;12.00
15079;BMP180;6932;51.438;5.470;2023-03-16T06:16:13;101149.00;;;12.00
15079;BMP180;6932;51.438;5.470;2023-03-16T06:18:41;101141.00;;;12.00
15079;BMP180;6932;51.438;5.470;2023-03-16T06:21:07;101153.00;;;12.00
15079;BMP180;6932;51.438;5.470;2023-03-16T06:23:33;101130.00;;;12.00
15079;BMP180;6932;51.438;5.470;2023-03-16T06:25:59;101143.00;;;12.00
15079;BMP180;6932;51.438;5.470;2023-03-16T06:28:26;101128.00;;;12.00
15079;BMP180;6932;51.438;5.470;2023-03-16T06:30:56;101144.00;;;12.10
15079;BMP180;6932;51.438;5.470;2023-03-16T06:33:23;101134.00;;;12.00
15079;BMP180;6932;51.438;5.470;2023-03-16T06:35:50;101134.00;;;12.10
15079;BMP180;6932;51.438;5.470;2023-03-16T06:38:17;101133.00;;;12.10
15079;BMP180;6932;51.438;5.470;2023-03-16T06:40:43;101118.00;;;12.10
15079;BMP180;6932;51.438;5.470;2023-03-16T06:43:09;101140.00;;;12.10
15079;BMP180;6932;51.438;5.470;2023-03-16T06:45:35;101130.00;;;12.10
15079;BMP180;6932;51.438;5.470;2023-03-16T06:48:01;101125.00;;;12.10
15079;BMP180;6932;51.438;5.470;2023-03-16T06:50:27;101117.00;;;12.10
15079;BMP180;6932;51.438;5.470;2023-03-16T06:52:53;101126.00;;;12.10
15079;BMP180;6932;51.438;5.470;2023-03-16T06:55:19;101124.00;;;12.10
15079;BMP180;6932;51.438;5.470;2023-03-16T06:57:45;101129.00;;;12.10
15079;BMP180;6932;51.438;5.470;2023-03-16T07:00:13;101129.00;;;12.20
15079;BMP180;6932;51.438;5.470;2023-03-16T07:02:40;101127.00;;;12.20
15079;BMP180;6932;51.438;5.470;2023-03-16T07:05:09;101127.00;;;12.20
15079;BMP180;6932;51.438;5.470;2023-03-16T07:07:42;101137.00;;;12.20
15079;BMP180;6932;51.438;5.470;2023-03-16T07:10:15;101135.00;;;12.20
15079;BMP180;6932;51.438;5.470;2023-03-16T07:12:42;101123.00;;;12.20
15079;BMP180;6932;51.438;5.470;2023-03-16T07:15:15;101117.00;;;12.20
15079;BMP180;6932;51.438;5.470;2023-03-16T07:17:41;101107.00;;;12.20
15079;BMP180;6932;51.438;5.470;2023-03-16T07:20:09;101116.00;;;12.30
15079;BMP180;6932;51.438;5.470;2023-03-16T07:22:37;101110.00;;;12.30
15079;BMP180;6932;51.438;5.470;2023-03-16T07:25:04;101115.00;;;12.30
15079;BMP180;6932;51.438;5.470;2023-03-16T07:27:31;101102.00;;;12.30
15079;BMP180;6932;51.438;5.470;2023-03-16T07:29:57;101106.00;;;12.30
15079;BMP180;6932;51.438;5.470;2023-03-16T07:32:24;101104.00;;;12.30
15079;BMP180;6932;51.438;5.470;2023-03-16T07:34:50;101105.00;;;12.40
15079;BMP180;6932;51.438;5.470;2023-03-16T07:37:16;101107.00;;;12.40
15079;BMP180;6932;51.438;5.470;2023-03-16T07:39:42;101104.00;;;12.40
15079;BMP180;6932;51.438;5.470;2023-03-16T07:42:08;101119.00;;;12.40
15079;BMP180;6932;51.438;5.470;2023-03-16T07:44:34;101111.00;;;12.40
15079;BMP180;6932;51.438;5.470;2023-03-16T07:47:00;101109.00;;;12.50
15079;BMP180;6932;51.438;5.470;2023-03-16T07:49:26;101107.00;;;12.50
15079;BMP180;6932;51.438;5.470;2023-03-16T07:51:52;101105.00;;;12.50
15079;BMP180;6932;51.438;5.470;2023-03-16T07:54:18;101106.00;;;12.50
15079;BMP180;6932;51.438;5.470;2023-03-16T07:56:44;101111.00;;;12.60
15079;BMP180;6932;51.438;5.470;2023-03-16T07:59:10;101111.00;;;12.60
15079;BMP180;6932;51.438;5.470;2023-03-16T08:01:36;101112.00;;;12.60
15079;BMP180;6932;51.438;5.470;2023-03-16T08:04:02;101123.00;;;12.60
15079;BMP180;6932;51.438;5.470;2023-03-16T08:06:28;101112.00;;;12.70
15079;BMP180;6932;51.438;5.470;2023-03-16T08:08:54;101105.00;;;12.70
15079;BMP180;6932;51.438;5.470;2023-03-16T08:11:20;101108.00;;;12.70
15079;BMP180;6932;51.438;5.470;2023-03-16T08:13:52;101111.00;;;12.80
15079;BMP180;6932;51.438;5.470;2023-03-16T08:16:25;101105.00;;;12.80
15079;BMP180;6932;51.438;5.470;2023-03-16T08:18:55;101107.00;;;12.80
15079;BMP180;6932;51.438;5.470;2023-03-16T08:21:22;101096.00;;;12.80
15079;BMP180;6932;51.438;5.470;2023-03-16T08:23:48;101108.00;;;12.90
15079;BMP180;6932;51.438;5.470;2023-03-16T08:26:24;101114.00;;;12.90
15079;BMP180;6932;51.438;5.470;2023-03-16T08:28:51;101088.00;;;12.90
15079;BMP180;6932;51.438;5.470;2023-03-16T08:31:18;101108.00;;;13.00
15079;BMP180;6932;51.438;5.470;2023-03-16T08:33:46;101111.00;;;13.00
15079;BMP180;6932;51.438;5.470;2023-03-16T08:36:15;101126.00;;;13.10
15079;BMP180;6932;51.438;5.470;2023-03-16T08:38:42;101106.00;;;13.10
15079;BMP180;6932;51.438;5.470;2023-03-16T08:41:09;101109.00;;;13.10
15079;BMP180;6932;51.438;5.470;2023-03-16T08:43:37;101107.00;;;13.20
15079;BMP180;6932;51.438;5.470;2023-03-16T08:46:03;101099.00;;;13.20
15079;BMP180;6932;51.438;5.470;2023-03-16T08:48:30;101104.00;;;13.20
15079;BMP180;6932;51.438;5.470;2023-03-16T08:51:03;101104.00;;;13.30
15079;BMP180;6932;51.438;5.470;2023-03-16T08:53:31;101095.00;;;13.30
15079;BMP180;6932;51.438;5.470;2023-03-16T08:56:06;101109.00;;;13.30
15079;BMP180;6932;51.438;5.470;2023-03-16T08:58:34;101088.00;;;13.30
15079;BMP180;6932;51.438;5.470;2023-03-16T09:01:02;101101.00;;;13.40
15079;BMP180;6932;51.438;5.470;2023-03-16T09:03:33;101090.00;;;13.40
15079;BMP180;6932;51.438;5.470;2023-03-16T09:06:06;101088.00;;;13.40
15079;BMP180;6932;51.438;5.470;2023-03-16T09:08:32;101096.00;;;13.40
15079;BMP180;6932;51.438;5.470;2023-03-16T09:11:00;101076.00;;;13.50
15079;BMP180;6932;51.438;5.470;2023-03-16T09:13:27;101087.00;;;13.50
15079;BMP180;6932;51.438;5.470;2023-03-16T09:15:53;101081.00;;;13.60
15079;BMP180;6932;51.438;5.470;2023-03-16T09:18:19;101078.00;;;13.60
15079;BMP180;6932;51.438;5.470;2023-03-16T09:20:45;101068.00;;;13.70
15079;BMP180;6932;51.438;5.470;2023-03-16T09:23:13;101094.00;;;13.70
15079;BMP180;6932;51.438;5.470;2023-03-16T09:25:39;101069.00;;;13.70
15079;BMP180;6932;51.438;5.470;2023-03-16T09:28:05;101071.00;;;13.80
15079;BMP180;6932;51.438;5.470;2023-03-16T09:30:31;101084.00;;;13.90
15079;BMP180;6932;51.438;5.470;2023-03-16T09:32:57;101076.00;;;13.90
15079;BMP180;6932;51.438;5.470;2023-03-16T09:35:24;101071.00;;;14.00
15079;BMP180;6932;51.438;5.470;2023-03-16T09:37:50;101074.00;;;14.10
15079;BMP180;6932;51.438;5.470;2023-03-16T09:40:28;101067.00;;;14.10
15079;BMP180;6932;51.438;5.470;2023-03-16T09:49:48;101086.00;;;14.30
15079;BMP180;6932;51.438;5.470;2023-03-16T09:55:26;101075.00;;;14.60
15079;BMP180;6932;51.438;5.470;2023-03-16T09:57:53;101060.00;;;14.70
15079;BMP180;6932;51.438;5.470;2023-03-16T10:00:27;101074.00;;;14.80
15079;BMP180;6932;51.438;5.470;2023-03-16T10:03:07;101063.00;;;14.90
15079;BMP180;6932;51.438;5.470;2023-03-16T10:10:00;101041.00;;;15.20
15079;BMP180;6932;51.438;5.470;2023-03-16T10:12:37;101039.00;;;15.40
15079;BMP180;6932;51.438;5.470;2023-03-16T10:15:19;101039.00;;;15.50
15079;BMP180;6932;51.438;5.470;2023-03-16T10:18:31;101040.00;;;15.70
15079;BMP180;6932;51.438;5.470;2023-03-16T10:21:01;101028.00;;;15.80
15079;BMP180;6932;51.438;5.470;2023-03-16T10:23:31;101030.00;;;15.90
15079;BMP180;6932;51.438;5.470;2023-03-16T10:33:31;101025.00;;;16.20
15079;BMP180;6932;51.438;5.470;2023-03-16T10:36:33;101022.00;;;16.30
15079;BMP180;6932;51.438;5.470;2023-03-16T10:39:08;101023.00;;;16.40
15079;BMP180;6932;51.438;5.470;2023-03-16T10:41:41;101038.00;;;16.40
15079;BMP180;6932;51.438;5.470;2023-03-16T10:44:21;101023.00;;;16.50
15079;BMP180;6932;51.438;5.470;2023-03-16T10:47:06;101014.00;;;16.50
15079;BMP180;6932;51.438;5.470;2023-03-16T10:49:39;101018.00;;;16.60
15079;BMP180;6932;51.438;5.470;2023-03-16T10:55:47;101024.00;;;16.60
15079;BMP180;6932;51.438;5.470;2023-03-16T10:58:29;101011.00;;;16.70
15079;BMP180;6932;51.438;5.470;2023-03-16T11:00:55;101013.00;;;16.80
15079;BMP180;6932;51.438;5.470;2023-03-16T11:03:28;101002.00;;;16.90
15079;BMP180;6932;51.438;5.470;2023-03-16T11:06:05;100999.00;;;16.90
15079;BMP180;6932;51.438;5.470;2023-03-16T11:08:37;100987.00;;;17.00
15079;BMP180;6932;51.438;5.470;2023-03-16T11:11:12;100998.00;;;17.00
15079;BMP180;6932;51.438;5.470;2023-03-16T11:13:45;100993.00;;;17.10
15079;BMP180;6932;51.438;5.470;2023-03-16T11:16:35;100999.00;;;17.10
15079;BMP180;6932;51.438;5.470;2023-03-16T11:19:32;100959.00;;;17.20
15079;BMP180;6932;51.438;5.470;2023-03-16T11:22:14;100970.00;;;17.20
15079;BMP180;6932;51.438;5.470;2023-03-16T11:31:23;100965.00;;;17.30
15079;BMP180;6932;51.438;5.470;2023-03-16T11:33:52;100969.00;;;17.30
15079;BMP180;6932;51.438;5.470;2023-03-16T11:36:54;100970.00;;;17.30
15079;BMP180;6932;51.438;5.470;2023-03-16T11:40:08;100961.00;;;17.30
15079;BMP180;6932;51.438;5.470;2023-03-16T11:46:13;100953.00;;;17.40
15079;BMP180;6932;51.438;5.470;2023-03-16T11:53:11;100949.00;;;17.40
15079;BMP180;6932;51.438;5.470;2023-03-16T11:55:55;100944.00;;;17.40
15079;BMP180;6932;51.438;5.470;2023-03-16T12:01:26;100942.00;;;17.50
15079;BMP180;6932;51.438;5.470;2023-03-16T12:04:14;100940.00;;;17.50
15079;BMP180;6932;51.438;5.470;2023-03-16T12:12:07;100878.00;;;17.60
15079;BMP180;6932;51.438;5.470;2023-03-16T12:17:43;100920.00;;;17.60
15079;BMP180;6932;51.438;5.470;2023-03-16T12:22:47;100932.00;;;17.60
15079;BMP180;6932;51.438;5.470;2023-03-16T12:25:21;100920.00;;;17.60
15079;BMP180;6932;51.438;5.470;2023-03-16T12:27:53;100915.00;;;17.60
15079;BMP180;6932;51.438;5.470;2023-03-16T12:30:45;100911.00;;;17.70
15079;BMP180;6932;51.438;5.470;2023-03-16T12:36:27;100853.00;;;17.80
15079;BMP180;6932;51.438;5.470;2023-03-16T12:42:31;100857.00;;;17.80
15079;BMP180;6932;51.438;5.470;2023-03-16T12:47:56;100868.00;;;17.80
15079;BMP180;6932;51.438;5.470;2023-03-16T12:50:25;100847.00;;;17.80
15079;BMP180;6932;51.438;5.470;2023-03-16T12:52:53;100839.00;;;17.80
15079;BMP180;6932;51.438;5.470;2023-03-16T12:55:43;100845.00;;;17.80
15079;BMP180;6932;51.438;5.470;2023-03-16T12:58:09;100834.00;;;17.80
15079;BMP180;6932;51.438;5.470;2023-03-16T13:00:40;100854.00;;;17.90
15079;BMP180;6932;51.438;5.470;2023-03-16T13:03:14;100833.00;;;17.90
15079;BMP180;6932;51.438;5.470;2023-03-16T13:05:56;100832.00;;;17.90
15079;BMP180;6932;51.438;5.470;2023-03-16T13:08:25;100816.00;;;17.90
15079;BMP180;6932;51.438;5.470;2023-03-16T13:11:04;100833.00;;;18.00
15079;BMP180;6932;51.438;5.470;2023-03-16T13:13:30;100838.00;;;18.00
15079;BMP180;6932;51.438;5.470;2023-03-16T13:16:22;100835.00;;;18.00
15079;BMP180;6932;51.438;5.470;2023-03-16T13:18:50;100828.00;;;18.00
15079;BMP180;6932;51.438;5.470;2023-03-16T13:21:40;100811.00;;;18.00
15079;BMP180;6932;51.438;5.470;2023-03-16T13:26:52;100806.00;;;18.00
15079;BMP180;6932;51.438;5.470;2023-03-16T13:29:27;100810.00;;;18.00
15079;BMP180;6932;51.438;5.470;2023-03-16T13:32:16;100822.00;;;18.10
15079;BMP180;6932;51.438;5.470;2023-03-16T13:34:49;100804.00;;;18.10
15079;BMP180;6932;51.438;5.470;2023-03-16T13:37:20;100784.00;;;18.10
15079;BMP180;6932;51.438;5.470;2023-03-16T13:39:53;100795.00;;;18.20
15079;BMP180;6932;51.438;5.470;2023-03-16T13:42:31;100796.00;;;18.20
15079;BMP180;6932;51.438;5.470;2023-03-16T13:45:10;100790.00;;;18.20
15079;BMP180;6932;51.438;5.470;2023-03-16T13:47:35;100787.00;;;18.20
15079;BMP180;6932;51.438;5.470;2023-03-16T13:50:01;100769.00;;;18.20
15079;BMP180;6932;51.438;5.470;2023-03-16T13:52:31;100780.00;;;18.20
15079;BMP180;6932;51.438;5.470;2023-03-16T13:55:00;100780.00;;;18.30
15079;BMP180;6932;51.438;5.470;2023-03-16T13:57:35;100768.00;;;18.30
15079;BMP180;6932;51.438;5.470;2023-03-16T14:02:45;100754.00;;;18.30
15079;BMP180;6932;51.438;5.470;2023-03-16T14:05:19;100742.00;;;18.30
15079;BMP180;6932;51.438;5.470;2023-03-16T14:07:47;100750.00;;;18.30
15079;BMP180;6932;51.438;5.470;2023-03-16T14:10:14;100750.00;;;18.40
15079;BMP180;6932;51.438;5.470;2023-03-16T14:12:56;100744.00;;;18.40
15079;BMP180;6932;51.438;5.470;2023-03-16T14:15:26;100740.00;;;18.40
15079;BMP180;6932;51.438;5.470;2023-03-16T14:17:52;100752.00;;;18.40
15079;BMP180;6932;51.438;5.470;2023-03-16T14:20:28;100742.00;;;18.40
15079;BMP180;6932;51.438;5.470;2023-03-16T14:22:54;100720.00;;;18.40
15079;BMP180;6932;51.438;5.470;2023-03-16T14:25:25;100734.00;;;18.50
15079;BMP180;6932;51.438;5.470;2023-03-16T14:28:04;100716.00;;;18.50
15079;BMP180;6932;51.438;5.470;2023-03-16T14:30:30;100715.00;;;18.50
15079;BMP180;6932;51.438;5.470;2023-03-16T14:33:31;100716.00;;;18.50
15079;BMP180;6932;51.438;5.470;2023-03-16T14:36:05;100707.00;;;18.50
15079;BMP180;6932;51.438;5.470;2023-03-16T14:38:35;100713.00;;;18.50
15079;BMP180;6932;51.438;5.470;2023-03-16T14:48:31;100702.00;;;18.50
15079;BMP180;6932;51.438;5.470;2023-03-16T14:50:59;100704.00;;;18.50
15079;BMP180;6932;51.438;5.470;2023-03-16T14:53:28;100703.00;;;18.60
15079;BMP180;6932;51.438;5.470;2023-03-16T14:55:58;100694.00;;;18.60
15079;BMP180;6932;51.438;5.470;2023-03-16T14:58:24;100695.00;;;18.60
15079;BMP180;6932;51.438;5.470;2023-03-16T15:00:52;100691.00;;;18.60
15079;BMP180;6932;51.438;5.470;2023-03-16T15:03:27;100683.00;;;18.60
15079;BMP180;6932;51.438;5.470;2023-03-16T15:05:54;100691.00;;;18.60
15079;BMP180;6932;51.438;5.470;2023-03-16T15:23:15;100679.00;;;18.50
15079;BMP180;6932;51.438;5.470;2023-03-16T15:25:45;100678.00;;;18.50
15079;BMP180;6932;51.438;5.470;2023-03-16T15:28:19;100684.00;;;18.60
15079;BMP180;6932;51.438;5.470;2023-03-16T15:30:57;100670.00;;;18.60
15079;BMP180;6932;51.438;5.470;2023-03-16T15:33:24;100659.00;;;18.60
15079;BMP180;6932;51.438;5.470;2023-03-16T15:35:52;100665.00;;;18.60
15079;BMP180;6932;51.438;5.470;2023-03-16T15:40:50;100660.00;;;18.70
15079;BMP180;6932;51.438;5.470;2023-03-16T15:47:06;100650.00;;;18.70
15079;BMP180;6932;51.438;5.470;2023-03-16T15:49:33;100653.00;;;18.60
15079;BMP180;6932;51.438;5.470;2023-03-16T15:52:00;100664.00;;;18.70
15079;BMP180;6932;51.438;5.470;2023-03-16T15:54:26;100653.00;;;18.70
15079;BMP180;6932;51.438;5.470;2023-03-16T15:56:53;100648.00;;;18.70
15079;BMP180;6932;51.438;5.470;2023-03-16T15:59:22;100644.00;;;18.70
15079;BMP180;6932;51.438;5.470;2023-03-16T16:01:48;100637.00;;;18.70
15079;BMP180;6932;51.438;5.470;2023-03-16T16:04:18;100639.00;;;18.80
15079;BMP180;6932;51.438;5.470;2023-03-16T16:10:26;100629.00;;;18.70
15079;BMP180;6932;51.438;5.470;2023-03-16T16:12:54;100632.00;;;18.70